sensor_id;sensor_type;location;lat;lon;timestamp;P1;durP1;ratioP1;P2;durP2;ratioP2
12429;SDS011;6279;42.192;24.326;2024-01-27T00:00:17;12.60;;;6.80;;
12429;SDS011;6279;42.192;24.326;2024-01-27T00:02:43;19.67;;;9.30;;
12429;SDS011;6279;42.192;24.326;2024-01-27T00:05:08;22.50;;;10.50;;
12429;SDS011;6279;42.192;24.326;2024-01-27T00:07:34;17.70;;;8.83;;
12429;SDS011;6279;42.192;24.326;2024-01-27T00:09:59;15.60;;;8.10;;
12429;SDS011;6279;42.192;24.326;2024-01-27T00:12:25;15.60;;;8.77;;
12429;SDS011;6279;42.192;24.326;2024-01-27T00:14:50;15.00;;;9.03;;
12429;SDS011;6279;42.192;24.326;2024-01-27T00:17:16;15.20;;;8.73;;
12429;SDS011;6279;42.192;24.326;2024-01-27T00:19:41;17.17;;;8.50;;
12429;SDS011;6279;42.192;24.326;2024-01-27T00:22:07;20.90;;;9.30;;
12429;SDS011;6279;42.192;24.326;2024-01-27T00:24:33;14.57;;;8.27;;
12429;SDS011;6279;42.192;24.326;2024-01-27T00:26:59;14.23;;;8.03;;
12429;SDS011;6279;42.192;24.326;2024-01-27T00:29:25;13.97;;;8.10;;
12429;SDS011;6279;42.192;24.326;2024-01-27T00:31:50;21.80;;;8.33;;
12429;SDS011;6279;42.192;24.326;2024-01-27T00:34:16;19.13;;;8.77;;
12429;SDS011;6279;42.192;24.326;2024-01-27T00:36:41;17.97;;;8.80;;
12429;SDS011;6279;42.192;24.326;2024-01-27T00:39:13;18.00;;;9.00;;
12429;SDS011;6279;42.192;24.326;2024-01-27T00:41:39;21.17;;;9.93;;
12429;SDS011;6279;42.192;24.326;2024-01-27T00:44:05;17.67;;;10.07;;
12429;SDS011;6279;42.192;24.326;2024-01-27T00:46:30;24.30;;;11.33;;
12429;SDS011;6279;42.192;24.326;2024-01-27T00:48:56;19.67;;;9.80;;
12429;SDS011;6279;42.192;24.326;2024-01-27T00:51:21;19.07;;;10.63;;
12429;SDS011;6279;42.192;24.326;2024-01-27T00:53:47;25.63;;;12.17;;
12429;SDS011;6279;42.192;24.326;2024-01-27T00:56:12;19.90;;;8.93;;
12429;SDS011;6279;42.192;24.326;2024-01-27T00:58:37;9.93;;;5.33;;
12429;SDS011;6279;42.192;24.326;2024-01-27T01:01:03;11.87;;;5.33;;
12429;SDS011;6279;42.192;24.326;2024-01-27T01:03:28;9.70;;;5.17;;
12429;SDS011;6279;42.192;24.326;2024-01-27T01:05:54;10.13;;;4.80;;
12429;SDS011;6279;42.192;24.326;2024-01-27T01:08:19;10.20;;;5.20;;
12429;SDS011;6279;42.192;24.326;2024-01-27T01:10:45;8.30;;;4.67;;
12429;SDS011;6279;42.192;24.326;2024-01-27T01:13:10;15.30;;;5.20;;
12429;SDS011;6279;42.192;24.326;2024-01-27T01:15:36;8.53;;;4.30;;
12429;SDS011;6279;42.192;24.326;2024-01-27T01:18:01;8.60;;;4.40;;
12429;SDS011;6279;42.192;24.326;2024-01-27T01:20:27;12.43;;;5.80;;
12429;SDS011;6279;42.192;24.326;2024-01-27T01:22:53;10.50;;;4.73;;
12429;SDS011;6279;42.192;24.326;2024-01-27T01:25:18;8.27;;;3.97;;
12429;SDS011;6279;42.192;24.326;2024-01-27T01:27:44;5.50;;;2.80;;
12429;SDS011;6279;42.192;24.326;2024-01-27T01:30:10;6.33;;;3.37;;
12429;SDS011;6279;42.192;24.326;2024-01-27T01:32:36;7.50;;;4.13;;
12429;SDS011;6279;42.192;24.326;2024-01-27T01:35:02;6.90;;;3.53;;
12429;SDS011;6279;42.192;24.326;2024-01-27T01:37:27;9.80;;;3.77;;
12429;SDS011;6279;42.192;24.326;2024-01-27T01:39:52;5.47;;;3.13;;
12429;SDS011;6279;42.192;24.326;2024-01-27T01:42:18;8.07;;;3.57;;
12429;SDS011;6279;42.192;24.326;2024-01-27T01:44:45;5.10;;;2.80;;
12429;SDS011;6279;42.192;24.326;2024-01-27T01:47:10;3.97;;;2.73;;
12429;SDS011;6279;42.192;24.326;2024-01-27T01:49:36;5.73;;;3.10;;
12429;SDS011;6279;42.192;24.326;2024-01-27T01:52:02;8.10;;;3.93;;
12429;SDS011;6279;42.192;24.326;2024-01-27T01:54:28;7.87;;;3.70;;
12429;SDS011;6279;42.192;24.326;2024-01-27T01:56:55;6.60;;;3.60;;
12429;SDS011;6279;42.192;24.326;2024-01-27T01:59:22;13.20;;;5.50;;
12429;SDS011;6279;42.192;24.326;2024-01-27T02:01:48;8.47;;;4.23;;
12429;SDS011;6279;42.192;24.326;2024-01-27T02:04:13;10.37;;;4.97;;
12429;SDS011;6279;42.192;24.326;2024-01-27T02:06:39;5.00;;;3.57;;
12429;SDS011;6279;42.192;24.326;2024-01-27T02:09:04;7.73;;;2.90;;
12429;SDS011;6279;42.192;24.326;2024-01-27T02:11:30;4.00;;;2.60;;
12429;SDS011;6279;42.192;24.326;2024-01-27T02:13:55;3.77;;;2.90;;
12429;SDS011;6279;42.192;24.326;2024-01-27T02:16:21;5.13;;;2.70;;
12429;SDS011;6279;42.192;24.326;2024-01-27T02:18:46;3.73;;;2.77;;
12429;SDS011;6279;42.192;24.326;2024-01-27T02:21:12;4.27;;;2.90;;
12429;SDS011;6279;42.192;24.326;2024-01-27T02:23:37;4.97;;;2.90;;
12429;SDS011;6279;42.192;24.326;2024-01-27T02:26:03;4.33;;;2.60;;
12429;SDS011;6279;42.192;24.326;2024-01-27T02:28:28;3.63;;;2.40;;
12429;SDS011;6279;42.192;24.326;2024-01-27T02:30:57;3.70;;;2.53;;
12429;SDS011;6279;42.192;24.326;2024-01-27T02:33:22;5.83;;;2.50;;
12429;SDS011;6279;42.192;24.326;2024-01-27T02:35:48;3.40;;;2.37;;
12429;SDS011;6279;42.192;24.326;2024-01-27T02:38:13;4.67;;;2.67;;
12429;SDS011;6279;42.192;24.326;2024-01-27T02:40:39;4.27;;;2.63;;
12429;SDS011;6279;42.192;24.326;2024-01-27T02:43:04;12.30;;;5.67;;
12429;SDS011;6279;42.192;24.326;2024-01-27T02:45:29;11.07;;;4.77;;
12429;SDS011;6279;42.192;24.326;2024-01-27T02:47:55;8.30;;;3.50;;
12429;SDS011;6279;42.192;24.326;2024-01-27T02:50:20;5.00;;;3.13;;
12429;SDS011;6279;42.192;24.326;2024-01-27T02:52:46;4.43;;;2.87;;
12429;SDS011;6279;42.192;24.326;2024-01-27T02:55:11;4.63;;;3.03;;
12429;SDS011;6279;42.192;24.326;2024-01-27T02:57:36;5.50;;;2.97;;
12429;SDS011;6279;42.192;24.326;2024-01-27T03:00:02;4.70;;;3.13;;
12429;SDS011;6279;42.192;24.326;2024-01-27T03:02:29;8.10;;;3.30;;
12429;SDS011;6279;42.192;24.326;2024-01-27T03:04:55;4.80;;;3.00;;
12429;SDS011;6279;42.192;24.326;2024-01-27T03:07:20;5.73;;;3.30;;
12429;SDS011;6279;42.192;24.326;2024-01-27T03:09:46;5.23;;;3.20;;
12429;SDS011;6279;42.192;24.326;2024-01-27T03:12:11;5.13;;;2.87;;
12429;SDS011;6279;42.192;24.326;2024-01-27T03:14:37;5.97;;;3.60;;
12429;SDS011;6279;42.192;24.326;2024-01-27T03:17:03;4.70;;;3.30;;
12429;SDS011;6279;42.192;24.326;2024-01-27T03:19:28;5.73;;;3.40;;
12429;SDS011;6279;42.192;24.326;2024-01-27T03:21:54;3.83;;;2.80;;
12429;SDS011;6279;42.192;24.326;2024-01-27T03:24:19;3.90;;;2.70;;
12429;SDS011;6279;42.192;24.326;2024-01-27T03:26:45;9.37;;;5.67;;
12429;SDS011;6279;42.192;24.326;2024-01-27T03:29:10;13.50;;;4.87;;
12429;SDS011;6279;42.192;24.326;2024-01-27T03:31:36;12.93;;;6.43;;
12429;SDS011;6279;42.192;24.326;2024-01-27T03:34:01;16.47;;;7.83;;
12429;SDS011;6279;42.192;24.326;2024-01-27T03:36:28;15.87;;;8.47;;
12429;SDS011;6279;42.192;24.326;2024-01-27T03:38:54;12.47;;;6.80;;
12429;SDS011;6279;42.192;24.326;2024-01-27T03:41:20;11.90;;;6.60;;
12429;SDS011;6279;42.192;24.326;2024-01-27T03:43:46;10.70;;;5.17;;
12429;SDS011;6279;42.192;24.326;2024-01-27T03:46:11;10.57;;;5.60;;
12429;SDS011;6279;42.192;24.326;2024-01-27T03:48:37;11.27;;;5.10;;
12429;SDS011;6279;42.192;24.326;2024-01-27T03:51:02;9.83;;;5.20;;
12429;SDS011;6279;42.192;24.326;2024-01-27T03:53:28;8.93;;;4.67;;
12429;SDS011;6279;42.192;24.326;2024-01-27T03:55:54;10.10;;;4.47;;
12429;SDS011;6279;42.192;24.326;2024-01-27T03:58:23;8.20;;;4.23;;
12429;SDS011;6279;42.192;24.326;2024-01-27T04:00:49;9.23;;;3.87;;
12429;SDS011;6279;42.192;24.326;2024-01-27T04:03:14;5.60;;;2.97;;
12429;SDS011;6279;42.192;24.326;2024-01-27T04:05:39;5.60;;;3.33;;
12429;SDS011;6279;42.192;24.326;2024-01-27T04:08:05;7.97;;;3.10;;
12429;SDS011;6279;42.192;24.326;2024-01-27T04:10:31;9.57;;;3.83;;
12429;SDS011;6279;42.192;24.326;2024-01-27T04:12:57;9.53;;;2.83;;
12429;SDS011;6279;42.192;24.326;2024-01-27T04:15:22;7.23;;;3.50;;
12429;SDS011;6279;42.192;24.326;2024-01-27T04:17:47;6.27;;;3.13;;
12429;SDS011;6279;42.192;24.326;2024-01-27T04:20:13;7.93;;;4.50;;
12429;SDS011;6279;42.192;24.326;2024-01-27T04:22:38;8.07;;;3.97;;
12429;SDS011;6279;42.192;24.326;2024-01-27T04:25:04;10.93;;;6.07;;
12429;SDS011;6279;42.192;24.326;2024-01-27T04:27:30;9.70;;;5.87;;
12429;SDS011;6279;42.192;24.326;2024-01-27T04:29:55;10.40;;;6.57;;
12429;SDS011;6279;42.192;24.326;2024-01-27T04:32:24;15.77;;;5.73;;
12429;SDS011;6279;42.192;24.326;2024-01-27T04:34:49;11.17;;;5.13;;
12429;SDS011;6279;42.192;24.326;2024-01-27T04:37:14;11.03;;;5.83;;
12429;SDS011;6279;42.192;24.326;2024-01-27T04:39:40;10.13;;;5.43;;
12429;SDS011;6279;42.192;24.326;2024-01-27T04:42:05;12.00;;;5.63;;
12429;SDS011;6279;42.192;24.326;2024-01-27T04:44:31;11.73;;;6.07;;
12429;SDS011;6279;42.192;24.326;2024-01-27T04:46:57;13.57;;;6.40;;
12429;SDS011;6279;42.192;24.326;2024-01-27T04:49:22;14.47;;;7.20;;
12429;SDS011;6279;42.192;24.326;2024-01-27T04:51:48;11.17;;;6.27;;
12429;SDS011;6279;42.192;24.326;2024-01-27T04:54:13;12.87;;;7.50;;
12429;SDS011;6279;42.192;24.326;2024-01-27T04:56:38;13.60;;;7.00;;
12429;SDS011;6279;42.192;24.326;2024-01-27T04:59:06;18.60;;;10.73;;
12429;SDS011;6279;42.192;24.326;2024-01-27T05:01:31;17.00;;;8.43;;
12429;SDS011;6279;42.192;24.326;2024-01-27T05:03:57;14.53;;;7.73;;
12429;SDS011;6279;42.192;24.326;2024-01-27T05:06:22;18.27;;;7.27;;
12429;SDS011;6279;42.192;24.326;2024-01-27T05:08:48;15.27;;;7.40;;
12429;SDS011;6279;42.192;24.326;2024-01-27T05:11:15;16.13;;;7.00;;
12429;SDS011;6279;42.192;24.326;2024-01-27T05:13:42;12.07;;;7.27;;
12429;SDS011;6279;42.192;24.326;2024-01-27T05:16:08;13.00;;;6.77;;
12429;SDS011;6279;42.192;24.326;2024-01-27T05:18:34;10.60;;;6.40;;
12429;SDS011;6279;42.192;24.326;2024-01-27T05:20:59;14.67;;;6.07;;
12429;SDS011;6279;42.192;24.326;2024-01-27T05:23:24;13.87;;;6.17;;
12429;SDS011;6279;42.192;24.326;2024-01-27T05:25:50;12.23;;;6.40;;
12429;SDS011;6279;42.192;24.326;2024-01-27T05:28:16;10.33;;;5.43;;
12429;SDS011;6279;42.192;24.326;2024-01-27T05:30:42;10.27;;;5.13;;
12429;SDS011;6279;42.192;24.326;2024-01-27T05:33:08;8.73;;;5.33;;
12429;SDS011;6279;42.192;24.326;2024-01-27T05:35:34;12.70;;;6.63;;
12429;SDS011;6279;42.192;24.326;2024-01-27T05:37:59;16.17;;;7.33;;
12429;SDS011;6279;42.192;24.326;2024-01-27T05:40:24;13.37;;;6.50;;
12429;SDS011;6279;42.192;24.326;2024-01-27T05:42:50;14.27;;;7.90;;
12429;SDS011;6279;42.192;24.326;2024-01-27T05:45:15;30.57;;;12.77;;
12429;SDS011;6279;42.192;24.326;2024-01-27T05:47:41;16.63;;;10.43;;
12429;SDS011;6279;42.192;24.326;2024-01-27T05:50:08;13.23;;;7.57;;
12429;SDS011;6279;42.192;24.326;2024-01-27T05:52:34;19.43;;;9.77;;
12429;SDS011;6279;42.192;24.326;2024-01-27T05:55:00;21.80;;;12.07;;
12429;SDS011;6279;42.192;24.326;2024-01-27T05:57:27;19.30;;;11.97;;
12429;SDS011;6279;42.192;24.326;2024-01-27T05:59:52;19.37;;;9.40;;
12429;SDS011;6279;42.192;24.326;2024-01-27T06:02:18;22.93;;;8.67;;
12429;SDS011;6279;42.192;24.326;2024-01-27T06:04:43;15.60;;;7.93;;
12429;SDS011;6279;42.192;24.326;2024-01-27T06:07:08;10.17;;;5.40;;
12429;SDS011;6279;42.192;24.326;2024-01-27T06:09:34;8.03;;;4.50;;
12429;SDS011;6279;42.192;24.326;2024-01-27T06:11:59;11.57;;;4.33;;
12429;SDS011;6279;42.192;24.326;2024-01-27T06:14:28;11.50;;;4.73;;
12429;SDS011;6279;42.192;24.326;2024-01-27T06:16:53;8.27;;;4.13;;
12429;SDS011;6279;42.192;24.326;2024-01-27T06:19:19;9.27;;;3.90;;
12429;SDS011;6279;42.192;24.326;2024-01-27T06:21:44;11.03;;;4.53;;
12429;SDS011;6279;42.192;24.326;2024-01-27T06:24:09;6.30;;;4.10;;
12429;SDS011;6279;42.192;24.326;2024-01-27T06:26:35;7.00;;;4.23;;
12429;SDS011;6279;42.192;24.326;2024-01-27T06:29:00;8.63;;;4.30;;
12429;SDS011;6279;42.192;24.326;2024-01-27T06:31:27;9.73;;;5.20;;
12429;SDS011;6279;42.192;24.326;2024-01-27T06:33:53;11.43;;;5.40;;
12429;SDS011;6279;42.192;24.326;2024-01-27T06:36:18;10.57;;;5.50;;
12429;SDS011;6279;42.192;24.326;2024-01-27T06:38:43;17.63;;;7.27;;
12429;SDS011;6279;42.192;24.326;2024-01-27T06:41:09;11.77;;;6.87;;
12429;SDS011;6279;42.192;24.326;2024-01-27T06:43:35;24.70;;;14.43;;
12429;SDS011;6279;42.192;24.326;2024-01-27T06:46:00;15.43;;;8.97;;
12429;SDS011;6279;42.192;24.326;2024-01-27T06:48:25;23.00;;;11.97;;
12429;SDS011;6279;42.192;24.326;2024-01-27T06:50:51;21.13;;;11.87;;
12429;SDS011;6279;42.192;24.326;2024-01-27T06:53:18;22.23;;;12.60;;
12429;SDS011;6279;42.192;24.326;2024-01-27T06:55:44;21.47;;;16.40;;
12429;SDS011;6279;42.192;24.326;2024-01-27T06:58:09;23.87;;;18.43;;
12429;SDS011;6279;42.192;24.326;2024-01-27T07:00:34;25.87;;;18.93;;
12429;SDS011;6279;42.192;24.326;2024-01-27T07:03:00;26.20;;;20.07;;
12429;SDS011;6279;42.192;24.326;2024-01-27T07:05:25;43.50;;;31.50;;
12429;SDS011;6279;42.192;24.326;2024-01-27T07:07:51;32.33;;;26.83;;
12429;SDS011;6279;42.192;24.326;2024-01-27T07:10:16;31.17;;;24.17;;
12429;SDS011;6279;42.192;24.326;2024-01-27T07:12:41;37.73;;;21.30;;
12429;SDS011;6279;42.192;24.326;2024-01-27T07:15:07;31.27;;;22.13;;
12429;SDS011;6279;42.192;24.326;2024-01-27T07:17:32;51.80;;;37.27;;
12429;SDS011;6279;42.192;24.326;2024-01-27T07:19:58;33.63;;;23.63;;
12429;SDS011;6279;42.192;24.326;2024-01-27T07:22:26;25.47;;;16.30;;
12429;SDS011;6279;42.192;24.326;2024-01-27T07:24:51;23.37;;;14.47;;
12429;SDS011;6279;42.192;24.326;2024-01-27T07:27:17;26.10;;;16.77;;
12429;SDS011;6279;42.192;24.326;2024-01-27T07:29:43;27.10;;;17.57;;
12429;SDS011;6279;42.192;24.326;2024-01-27T07:32:09;28.27;;;20.87;;
12429;SDS011;6279;42.192;24.326;2024-01-27T07:34:39;53.03;;;34.77;;
12429;SDS011;6279;42.192;24.326;2024-01-27T07:37:09;51.33;;;34.37;;
12429;SDS011;6279;42.192;24.326;2024-01-27T07:39:34;60.10;;;36.90;;
12429;SDS011;6279;42.192;24.326;2024-01-27T07:42:00;57.87;;;35.00;;
12429;SDS011;6279;42.192;24.326;2024-01-27T07:44:25;48.43;;;28.73;;
12429;SDS011;6279;42.192;24.326;2024-01-27T07:46:52;39.97;;;23.27;;
12429;SDS011;6279;42.192;24.326;2024-01-27T07:49:18;35.43;;;21.67;;
12429;SDS011;6279;42.192;24.326;2024-01-27T07:51:43;29.07;;;17.93;;
12429;SDS011;6279;42.192;24.326;2024-01-27T07:54:09;35.77;;;21.90;;
12429;SDS011;6279;42.192;24.326;2024-01-27T07:56:34;36.50;;;25.93;;
12429;SDS011;6279;42.192;24.326;2024-01-27T07:58:59;36.57;;;25.27;;
12429;SDS011;6279;42.192;24.326;2024-01-27T08:01:25;31.13;;;21.33;;
12429;SDS011;6279;42.192;24.326;2024-01-27T08:03:50;26.33;;;16.43;;
12429;SDS011;6279;42.192;24.326;2024-01-27T08:06:16;28.97;;;19.40;;
12429;SDS011;6279;42.192;24.326;2024-01-27T08:08:46;28.60;;;17.97;;
12429;SDS011;6279;42.192;24.326;2024-01-27T08:11:13;85.53;;;49.37;;
12429;SDS011;6279;42.192;24.326;2024-01-27T08:13:42;49.53;;;28.70;;
12429;SDS011;6279;42.192;24.326;2024-01-27T08:16:08;18.07;;;11.30;;
12429;SDS011;6279;42.192;24.326;2024-01-27T08:18:41;23.60;;;13.37;;
12429;SDS011;6279;42.192;24.326;2024-01-27T08:21:10;19.83;;;10.20;;
12429;SDS011;6279;42.192;24.326;2024-01-27T08:23:36;17.63;;;11.10;;
12429;SDS011;6279;42.192;24.326;2024-01-27T08:26:02;22.07;;;13.20;;
12429;SDS011;6279;42.192;24.326;2024-01-27T08:28:28;14.70;;;10.00;;
12429;SDS011;6279;42.192;24.326;2024-01-27T08:30:53;16.33;;;9.47;;
12429;SDS011;6279;42.192;24.326;2024-01-27T08:33:18;20.50;;;11.40;;
12429;SDS011;6279;42.192;24.326;2024-01-27T08:35:46;28.30;;;18.50;;
12429;SDS011;6279;42.192;24.326;2024-01-27T08:38:11;19.70;;;11.83;;
12429;SDS011;6279;42.192;24.326;2024-01-27T08:40:37;15.17;;;9.80;;
12429;SDS011;6279;42.192;24.326;2024-01-27T08:43:02;13.50;;;8.13;;
12429;SDS011;6279;42.192;24.326;2024-01-27T08:45:28;13.13;;;6.87;;
12429;SDS011;6279;42.192;24.326;2024-01-27T08:47:53;4.83;;;2.30;;
12429;SDS011;6279;42.192;24.326;2024-01-27T08:50:19;2.90;;;2.10;;
12429;SDS011;6279;42.192;24.326;2024-01-27T08:52:44;2.97;;;1.77;;
12429;SDS011;6279;42.192;24.326;2024-01-27T08:55:11;4.13;;;2.30;;
12429;SDS011;6279;42.192;24.326;2024-01-27T08:57:36;3.60;;;2.30;;
12429;SDS011;6279;42.192;24.326;2024-01-27T09:00:02;5.27;;;2.90;;
12429;SDS011;6279;42.192;24.326;2024-01-27T09:02:28;4.70;;;1.60;;
12429;SDS011;6279;42.192;24.326;2024-01-27T09:04:53;4.00;;;1.50;;
12429;SDS011;6279;42.192;24.326;2024-01-27T09:07:19;2.20;;;1.80;;
12429;SDS011;6279;42.192;24.326;2024-01-27T09:09:44;5.37;;;1.80;;
12429;SDS011;6279;42.192;24.326;2024-01-27T09:12:10;5.07;;;3.10;;
12429;SDS011;6279;42.192;24.326;2024-01-27T09:14:35;2.23;;;1.83;;
12429;SDS011;6279;42.192;24.326;2024-01-27T09:17:01;4.73;;;1.80;;
12429;SDS011;6279;42.192;24.326;2024-01-27T09:19:27;2.87;;;1.30;;
12429;SDS011;6279;42.192;24.326;2024-01-27T09:21:52;4.07;;;1.37;;
12429;SDS011;6279;42.192;24.326;2024-01-27T09:24:18;3.13;;;1.07;;
12429;SDS011;6279;42.192;24.326;2024-01-27T09:26:43;1.93;;;1.50;;
12429;SDS011;6279;42.192;24.326;2024-01-27T09:29:09;4.43;;;2.03;;
12429;SDS011;6279;42.192;24.326;2024-01-27T09:31:34;3.13;;;2.00;;
12429;SDS011;6279;42.192;24.326;2024-01-27T09:34:00;5.60;;;3.17;;
12429;SDS011;6279;42.192;24.326;2024-01-27T09:36:26;7.13;;;3.90;;
12429;SDS011;6279;42.192;24.326;2024-01-27T09:38:51;4.73;;;1.30;;
12429;SDS011;6279;42.192;24.326;2024-01-27T09:41:17;1.23;;;0.93;;
12429;SDS011;6279;42.192;24.326;2024-01-27T09:43:44;1.33;;;1.20;;
12429;SDS011;6279;42.192;24.326;2024-01-27T09:46:13;2.83;;;1.57;;
12429;SDS011;6279;42.192;24.326;2024-01-27T09:48:40;2.17;;;1.50;;
12429;SDS011;6279;42.192;24.326;2024-01-27T09:51:07;2.77;;;1.77;;
12429;SDS011;6279;42.192;24.326;2024-01-27T09:53:33;2.30;;;1.50;;
12429;SDS011;6279;42.192;24.326;2024-01-27T09:55:59;1.93;;;1.27;;
12429;SDS011;6279;42.192;24.326;2024-01-27T09:58:27;2.53;;;1.77;;
12429;SDS011;6279;42.192;24.326;2024-01-27T10:00:54;2.50;;;1.53;;
12429;SDS011;6279;42.192;24.326;2024-01-27T10:03:22;1.63;;;1.23;;
12429;SDS011;6279;42.192;24.326;2024-01-27T10:05:56;2.47;;;1.40;;
12429;SDS011;6279;42.192;24.326;2024-01-27T10:08:23;2.50;;;1.30;;
12429;SDS011;6279;42.192;24.326;2024-01-27T10:10:58;1.90;;;1.30;;
12429;SDS011;6279;42.192;24.326;2024-01-27T10:13:24;2.57;;;1.03;;
12429;SDS011;6279;42.192;24.326;2024-01-27T10:16:05;4.93;;;2.00;;
12429;SDS011;6279;42.192;24.326;2024-01-27T10:18:32;1.63;;;1.10;;
12429;SDS011;6279;42.192;24.326;2024-01-27T10:20:58;1.73;;;1.30;;
12429;SDS011;6279;42.192;24.326;2024-01-27T10:23:24;2.43;;;1.10;;
12429;SDS011;6279;42.192;24.326;2024-01-27T10:25:50;1.30;;;1.20;;
12429;SDS011;6279;42.192;24.326;2024-01-27T10:28:16;3.73;;;1.60;;
12429;SDS011;6279;42.192;24.326;2024-01-27T10:30:42;2.73;;;1.20;;
12429;SDS011;6279;42.192;24.326;2024-01-27T10:33:09;3.00;;;1.70;;
12429;SDS011;6279;42.192;24.326;2024-01-27T10:35:35;2.40;;;1.77;;
12429;SDS011;6279;42.192;24.326;2024-01-27T10:38:01;3.10;;;2.13;;
12429;SDS011;6279;42.192;24.326;2024-01-27T10:40:27;3.53;;;2.80;;
12429;SDS011;6279;42.192;24.326;2024-01-27T10:43:06;4.23;;;2.60;;
12429;SDS011;6279;42.192;24.326;2024-01-27T10:45:36;1.83;;;1.40;;
12429;SDS011;6279;42.192;24.326;2024-01-27T10:48:03;7.13;;;3.20;;
12429;SDS011;6279;42.192;24.326;2024-01-27T10:50:30;10.13;;;3.77;;
12429;SDS011;6279;42.192;24.326;2024-01-27T10:52:59;10.13;;;4.27;;
12429;SDS011;6279;42.192;24.326;2024-01-27T10:55:28;4.23;;;2.47;;
12429;SDS011;6279;42.192;24.326;2024-01-27T10:57:54;5.70;;;2.67;;
12429;SDS011;6279;42.192;24.326;2024-01-27T11:00:22;3.70;;;1.83;;
12429;SDS011;6279;42.192;24.326;2024-01-27T11:02:49;2.57;;;1.47;;
12429;SDS011;6279;42.192;24.326;2024-01-27T11:05:18;5.17;;;3.07;;
12429;SDS011;6279;42.192;24.326;2024-01-27T11:07:44;3.10;;;2.50;;
12429;SDS011;6279;42.192;24.326;2024-01-27T11:10:12;7.10;;;2.83;;
12429;SDS011;6279;42.192;24.326;2024-01-27T11:12:37;4.50;;;3.07;;
12429;SDS011;6279;42.192;24.326;2024-01-27T11:15:04;3.17;;;1.97;;
12429;SDS011;6279;42.192;24.326;2024-01-27T11:17:38;1.73;;;1.20;;
12429;SDS011;6279;42.192;24.326;2024-01-27T11:20:05;1.63;;;1.30;;
12429;SDS011;6279;42.192;24.326;2024-01-27T11:22:32;3.90;;;1.10;;
12429;SDS011;6279;42.192;24.326;2024-01-27T11:25:08;1.17;;;1.07;;
12429;SDS011;6279;42.192;24.326;2024-01-27T11:27:40;1.80;;;1.40;;
12429;SDS011;6279;42.192;24.326;2024-01-27T11:30:06;3.27;;;1.67;;
12429;SDS011;6279;42.192;24.326;2024-01-27T11:32:50;2.37;;;1.30;;
12429;SDS011;6279;42.192;24.326;2024-01-27T11:35:17;4.93;;;1.23;;
12429;SDS011;6279;42.192;24.326;2024-01-27T11:37:43;2.50;;;1.40;;
12429;SDS011;6279;42.192;24.326;2024-01-27T11:40:08;2.83;;;1.17;;
12429;SDS011;6279;42.192;24.326;2024-01-27T11:42:34;1.43;;;1.10;;
12429;SDS011;6279;42.192;24.326;2024-01-27T11:45:00;1.20;;;1.07;;
12429;SDS011;6279;42.192;24.326;2024-01-27T11:47:26;2.20;;;1.20;;
12429;SDS011;6279;42.192;24.326;2024-01-27T11:49:52;2.87;;;1.00;;
12429;SDS011;6279;42.192;24.326;2024-01-27T11:52:19;2.50;;;1.33;;
12429;SDS011;6279;42.192;24.326;2024-01-27T11:54:45;4.37;;;1.10;;
12429;SDS011;6279;42.192;24.326;2024-01-27T11:57:10;2.30;;;1.60;;
12429;SDS011;6279;42.192;24.326;2024-01-27T11:59:36;1.10;;;1.00;;
12429;SDS011;6279;42.192;24.326;2024-01-27T12:02:04;1.20;;;1.10;;
12429;SDS011;6279;42.192;24.326;2024-01-27T12:04:30;4.10;;;1.30;;
12429;SDS011;6279;42.192;24.326;2024-01-27T12:06:56;2.13;;;1.20;;
12429;SDS011;6279;42.192;24.326;2024-01-27T12:09:21;1.60;;;1.30;;
12429;SDS011;6279;42.192;24.326;2024-01-27T12:11:47;1.40;;;1.13;;
12429;SDS011;6279;42.192;24.326;2024-01-27T12:14:13;1.83;;;1.47;;
12429;SDS011;6279;42.192;24.326;2024-01-27T12:16:38;2.40;;;1.43;;
12429;SDS011;6279;42.192;24.326;2024-01-27T12:19:04;1.03;;;0.90;;
12429;SDS011;6279;42.192;24.326;2024-01-27T12:21:29;2.47;;;1.30;;
12429;SDS011;6279;42.192;24.326;2024-01-27T12:23:56;1.23;;;0.80;;
12429;SDS011;6279;42.192;24.326;2024-01-27T12:26:23;2.77;;;1.00;;
12429;SDS011;6279;42.192;24.326;2024-01-27T12:28:50;1.00;;;0.90;;
12429;SDS011;6279;42.192;24.326;2024-01-27T12:31:16;1.60;;;0.87;;
12429;SDS011;6279;42.192;24.326;2024-01-27T12:33:48;1.30;;;0.80;;
12429;SDS011;6279;42.192;24.326;2024-01-27T12:36:18;1.63;;;0.90;;
12429;SDS011;6279;42.192;24.326;2024-01-27T12:38:59;1.27;;;0.80;;
12429;SDS011;6279;42.192;24.326;2024-01-27T12:41:26;1.77;;;1.00;;
12429;SDS011;6279;42.192;24.326;2024-01-27T12:43:53;9.80;;;1.30;;
12429;SDS011;6279;42.192;24.326;2024-01-27T12:46:19;1.20;;;1.10;;
12429;SDS011;6279;42.192;24.326;2024-01-27T12:48:44;2.13;;;1.50;;
12429;SDS011;6279;42.192;24.326;2024-01-27T12:51:10;1.53;;;1.27;;
12429;SDS011;6279;42.192;24.326;2024-01-27T12:53:38;1.40;;;1.10;;
12429;SDS011;6279;42.192;24.326;2024-01-27T12:56:06;4.17;;;2.00;;
12429;SDS011;6279;42.192;24.326;2024-01-27T12:58:32;1.80;;;1.50;;
12429;SDS011;6279;42.192;24.326;2024-01-27T13:00:58;1.63;;;1.43;;
12429;SDS011;6279;42.192;24.326;2024-01-27T13:03:23;3.97;;;1.33;;
12429;SDS011;6279;42.192;24.326;2024-01-27T13:05:49;1.10;;;1.00;;
12429;SDS011;6279;42.192;24.326;2024-01-27T13:08:14;0.90;;;0.90;;
12429;SDS011;6279;42.192;24.326;2024-01-27T13:10:39;4.07;;;2.53;;
12429;SDS011;6279;42.192;24.326;2024-01-27T13:13:05;1.70;;;1.20;;
12429;SDS011;6279;42.192;24.326;2024-01-27T13:15:30;3.27;;;1.50;;
12429;SDS011;6279;42.192;24.326;2024-01-27T13:17:55;3.40;;;1.60;;
12429;SDS011;6279;42.192;24.326;2024-01-27T13:20:21;1.70;;;1.60;;
12429;SDS011;6279;42.192;24.326;2024-01-27T13:22:46;1.67;;;1.50;;
12429;SDS011;6279;42.192;24.326;2024-01-27T13:25:12;3.10;;;1.63;;
12429;SDS011;6279;42.192;24.326;2024-01-27T13:27:37;1.20;;;1.10;;
12429;SDS011;6279;42.192;24.326;2024-01-27T13:30:03;1.40;;;1.20;;
12429;SDS011;6279;42.192;24.326;2024-01-27T13:32:28;2.07;;;1.87;;
12429;SDS011;6279;42.192;24.326;2024-01-27T13:34:54;2.20;;;1.90;;
12429;SDS011;6279;42.192;24.326;2024-01-27T13:37:20;3.30;;;1.57;;
12429;SDS011;6279;42.192;24.326;2024-01-27T13:39:47;1.70;;;1.60;;
12429;SDS011;6279;42.192;24.326;2024-01-27T13:42:12;3.60;;;1.40;;
12429;SDS011;6279;42.192;24.326;2024-01-27T13:44:38;1.40;;;1.30;;
12429;SDS011;6279;42.192;24.326;2024-01-27T13:47:04;1.33;;;1.23;;
12429;SDS011;6279;42.192;24.326;2024-01-27T13:49:30;1.77;;;1.20;;
12429;SDS011;6279;42.192;24.326;2024-01-27T13:51:56;2.80;;;1.53;;
12429;SDS011;6279;42.192;24.326;2024-01-27T13:54:22;2.37;;;1.43;;
12429;SDS011;6279;42.192;24.326;2024-01-27T13:56:47;2.20;;;1.80;;
12429;SDS011;6279;42.192;24.326;2024-01-27T13:59:13;1.80;;;1.50;;
12429;SDS011;6279;42.192;24.326;2024-01-27T14:01:38;1.90;;;1.53;;
12429;SDS011;6279;42.192;24.326;2024-01-27T14:04:04;3.03;;;2.30;;
12429;SDS011;6279;42.192;24.326;2024-01-27T14:06:30;4.57;;;2.00;;
12429;SDS011;6279;42.192;24.326;2024-01-27T14:08:55;3.10;;;1.80;;
12429;SDS011;6279;42.192;24.326;2024-01-27T14:11:21;2.40;;;1.77;;
12429;SDS011;6279;42.192;24.326;2024-01-27T14:13:47;1.40;;;1.27;;
12429;SDS011;6279;42.192;24.326;2024-01-27T14:16:12;2.40;;;2.10;;
12429;SDS011;6279;42.192;24.326;2024-01-27T14:18:38;4.17;;;2.27;;
12429;SDS011;6279;42.192;24.326;2024-01-27T14:21:03;1.10;;;1.00;;
12429;SDS011;6279;42.192;24.326;2024-01-27T14:23:29;1.83;;;1.50;;
12429;SDS011;6279;42.192;24.326;2024-01-27T14:25:54;2.10;;;1.70;;
12429;SDS011;6279;42.192;24.326;2024-01-27T14:28:21;2.50;;;1.70;;
12429;SDS011;6279;42.192;24.326;2024-01-27T14:30:47;3.67;;;1.77;;
12429;SDS011;6279;42.192;24.326;2024-01-27T14:33:13;5.00;;;2.87;;